Time;durP1;ratioP1;P1;durP2;ratioP2;P2;SDS_P1;SDS_P2;PMS_P1;PMS_P2;Temp;Humidity;BMP_temperature;BMP_pressure;BME280_temperature;BME280_humidity;BME280_pressure;Samples;Min_cycle;Max_cycle;Signal;HPM_P1;HPM_P2
2022/06/29 00:00:36;;;;;;;;;;;21.60;99.90;;;;;;4590998;19;19986;-36
2022/06/29 00:02:15;;;;;;;;;;;21.60;99.90;;;;;;4589719;19;19994;-40
2022/06/29 00:03:46;;;;;;;;;;;21.60;99.90;;;;;;4590850;19;19923;-36
2022/06/29 00:05:18;;;;;;;;;;;21.60;99.90;;;;;;4591564;19;19927;-35
2022/06/29 00:06:49;;;;;;;;;;;21.60;99.90;;;;;;4591540;19;19923;-33
2022/06/29 00:08:20;;;;;;;;;;;21.60;99.90;;;;;;4590712;19;19925;-42
2022/06/29 00:09:51;;;;;;;;;;;21.60;99.90;;;;;;4591211;19;20254;-41
2022/06/29 00:11:22;;;;;;;;;;;21.60;99.90;;;;;;4593460;19;19922;-34
2022/06/29 00:12:53;;;;;;;;;;;21.60;99.90;;;;;;4595728;19;20316;-38
2022/06/29 00:14:24;;;;;;;;;;;21.60;99.90;;;;;;4595781;19;19911;-40
2022/06/29 00:15:55;;;;;;;;;;;21.60;99.90;;;;;;4595538;19;19915;-37
2022/06/29 00:17:26;;;;;;;;;;;21.50;99.90;;;;;;4594377;19;19923;-38
2022/06/29 00:18:58;;;;;;;;;;;21.50;99.90;;;;;;4594549;19;19933;-37
2022/06/29 00:20:28;;;;;;;;;;;21.50;99.90;;;;;;4595342;19;19915;-37
2022/06/29 00:21:59;;;;;;;;;;;21.50;99.90;;;;;;4595496;19;19949;-35
2022/06/29 00:23:30;;;;;;;;;;;21.50;99.90;;;;;;4595573;19;19930;-35
2022/06/29 00:25:02;;;;;;;;;;;21.50;99.90;;;;;;4595205;19;19911;-41
2022/06/29 00:26:32;;;;;;;;;;;21.60;99.90;;;;;;4595030;19;19925;-35
2022/06/29 00:28:04;;;;;;;;;;;21.50;99.90;;;;;;4595690;19;19914;-40
2022/06/29 00:29:34;;;;;;;;;;;21.50;99.90;;;;;;4595103;19;19907;-35
2022/06/29 00:31:06;;;;;;;;;;;21.50;99.90;;;;;;4593850;19;20037;-35
2022/06/29 00:32:37;;;;;;;;;;;21.50;99.90;;;;;;4594778;19;19923;-38
2022/06/29 00:34:08;;;;;;;;;;;21.50;99.90;;;;;;4594090;19;19942;-34
2022/06/29 00:35:39;;;;;;;;;;;21.10;99.90;;;;;;4594455;19;20358;-40
2022/06/29 00:37:10;;;;;;;;;;;20.80;99.90;;;;;;4595129;19;20248;-37
2022/06/29 00:38:42;;;;;;;;;;;20.50;99.90;;;;;;4593287;19;19919;-35
2022/06/29 00:40:13;;;;;;;;;;;20.30;99.90;;;;;;4594061;19;19911;-38
2022/06/29 00:41:44;;;;;;;;;;;20.30;99.90;;;;;;4592541;19;19915;-35
2022/06/29 00:43:16;;;;;;;;;;;20.20;99.90;;;;;;4594402;19;19966;-33
2022/06/29 00:44:47;;;;;;;;;;;20.10;99.90;;;;;;4595021;19;20252;-36
2022/06/29 00:46:18;;;;;;;;;;;20.10;99.90;;;;;;4595030;19;19926;-36
2022/06/29 00:47:49;;;;;;;;;;;20.00;99.90;;;;;;4594673;19;19915;-34
2022/06/29 00:49:20;;;;;;;;;;;20.00;99.90;;;;;;4593780;19;19919;-35
2022/06/29 00:50:51;;;;;;;;;;;20.00;99.90;;;;;;4594578;19;19914;-40
2022/06/29 00:52:24;;;;;;;;;;;19.90;99.90;;;;;;4594231;19;20280;-38
2022/06/29 00:53:55;;;;;;;;;;;19.90;99.90;;;;;;4594369;19;19918;-36
2022/06/29 00:55:27;;;;;;;;;;;19.90;99.90;;;;;;4595132;19;19933;-35
2022/06/29 00:56:58;;;;;;;;;;;19.90;99.90;;;;;;4593985;19;19919;-36
2022/06/29 00:58:29;;;;;;;;;;;19.80;99.90;;;;;;4593399;19;19975;-36
2022/06/29 01:00:00;;;;;;;;;;;19.80;99.90;;;;;;4592142;19;19926;-35
2022/06/29 01:01:31;;;;;;;;;;;19.80;99.90;;;;;;4594523;19;20317;-42
2022/06/29 01:03:03;;;;;;;;;;;19.80;99.90;;;;;;4594905;19;19938;-40
2022/06/29 01:04:34;;;;;;;;;;;19.80;99.90;;;;;;4594527;19;20329;-37
2022/06/29 01:06:05;;;;;;;;;;;19.80;99.90;;;;;;4594468;19;19923;-38
2022/06/29 01:07:36;;;;;;;;;;;19.70;99.90;;;;;;4594237;19;19911;-39
2022/06/29 01:09:07;;;;;;;;;;;19.70;99.90;;;;;;4593177;19;20321;-39
2022/06/29 01:10:38;;;;;;;;;;;19.70;99.90;;;;;;4593303;19;20025;-38
2022/06/29 01:12:09;;;;;;;;;;;19.70;99.90;;;;;;4593884;19;19915;-37
2022/06/29 01:13:41;;;;;;;;;;;19.70;99.90;;;;;;4593681;19;19919;-35
2022/06/29 01:15:12;;;;;;;;;;;19.70;99.90;;;;;;4592883;19;19919;-39
2022/06/29 01:16:43;;;;;;;;;;;19.70;99.90;;;;;;4593289;19;19915;-39
2022/06/29 01:18:14;;;;;;;;;;;19.70;99.90;;;;;;4593719;19;19928;-37
2022/06/29 01:19:45;;;;;;;;;;;19.70;99.90;;;;;;4593723;19;19966;-36
2022/06/29 01:21:18;;;;;;;;;;;19.70;99.90;;;;;;4593945;19;19914;-39
2022/06/29 01:22:48;;;;;;;;;;;19.70;99.90;;;;;;4592098;19;19940;-37
2022/06/29 01:24:19;;;;;;;;;;;19.70;99.90;;;;;;4594571;19;20275;-34
2022/06/29 01:25:51;;;;;;;;;;;19.70;99.90;;;;;;4594661;19;20006;-35
2022/06/29 01:27:23;;;;;;;;;;;19.70;99.90;;;;;;4594140;19;19915;-37
2022/06/29 01:28:54;;;;;;;;;;;19.70;99.90;;;;;;4592600;19;19915;-35
2022/06/29 01:30:24;;;;;;;;;;;19.70;99.90;;;;;;4594171;19;20236;-38
2022/06/29 01:31:56;;;;;;;;;;;19.70;99.90;;;;;;4594064;19;20306;-39
2022/06/29 01:33:28;;;;;;;;;;;19.70;99.90;;;;;;4593929;19;19923;-36
2022/06/29 01:34:59;;;;;;;;;;;19.70;99.90;;;;;;4594044;19;20333;-40
2022/06/29 01:36:30;;;;;;;;;;;19.60;99.90;;;;;;4594437;19;19918;-40
2022/06/29 01:38:01;;;;;;;;;;;19.60;99.90;;;;;;4592782;19;20263;-35
2022/06/29 01:39:32;;;;;;;;;;;19.70;99.90;;;;;;4590461;19;19919;-35
2022/06/29 01:41:08;;;;;;;;;;;19.60;99.90;;;;;;4592794;19;19919;-39
2022/06/29 01:42:38;;;;;;;;;;;19.60;99.90;;;;;;4594357;19;19919;-41
2022/06/29 01:44:10;;;;;;;;;;;19.60;99.90;;;;;;4593512;19;20301;-36
2022/06/29 01:45:40;;;;;;;;;;;19.60;99.90;;;;;;4593655;19;19938;-38
2022/06/29 01:47:11;;;;;;;;;;;19.60;99.90;;;;;;4593784;19;20241;-35
2022/06/29 01:48:42;;;;;;;;;;;19.60;99.90;;;;;;4593417;19;19928;-37
2022/06/29 01:50:13;;;;;;;;;;;19.60;99.90;;;;;;4593441;19;19911;-37
2022/06/29 01:51:44;;;;;;;;;;;19.60;99.90;;;;;;4593559;19;19927;-41
2022/06/29 01:53:15;;;;;;;;;;;19.60;99.90;;;;;;4592457;19;19939;-35
2022/06/29 01:54:46;;;;;;;;;;;19.60;99.90;;;;;;4592990;19;19911;-38
2022/06/29 01:56:18;;;;;;;;;;;19.60;99.90;;;;;;4593354;19;20356;-33
2022/06/29 01:57:49;;;;;;;;;;;19.60;99.90;;;;;;4592193;19;20336;-34
2022/06/29 01:59:20;;;;;;;;;;;19.60;99.90;;;;;;4592434;19;19928;-37
2022/06/29 02:00:51;;;;;;;;;;;19.60;99.90;;;;;;4593315;19;19944;-36
2022/06/29 02:02:22;;;;;;;;;;;19.60;99.90;;;;;;4592174;19;19926;-42
2022/06/29 02:03:53;;;;;;;;;;;19.60;99.90;;;;;;4592884;19;19919;-43
2022/06/29 02:05:24;;;;;;;;;;;19.60;99.90;;;;;;4593869;19;19932;-37
2022/06/29 02:06:55;;;;;;;;;;;19.60;99.90;;;;;;4593008;19;19915;-37
2022/06/29 02:08:26;;;;;;;;;;;19.60;99.90;;;;;;4593595;19;19994;-36
2022/06/29 02:09:57;;;;;;;;;;;19.60;99.90;;;;;;4593772;19;19915;-35
2022/06/29 02:11:28;;;;;;;;;;;19.60;99.90;;;;;;4592856;19;19915;-39
2022/06/29 02:12:59;;;;;;;;;;;19.60;99.90;;;;;;4592964;19;19915;-41
2022/06/29 02:14:31;;;;;;;;;;;19.60;99.90;;;;;;4593937;19;20334;-38
2022/06/29 02:16:02;;;;;;;;;;;19.60;99.90;;;;;;4593227;19;19934;-42
2022/06/29 02:17:33;;;;;;;;;;;19.60;99.90;;;;;;4592811;19;20252;-35
2022/06/29 02:19:03;;;;;;;;;;;19.60;99.90;;;;;;4591447;19;19929;-34
2022/06/29 02:20:35;;;;;;;;;;;19.60;99.90;;;;;;4592325;19;19911;-35
2022/06/29 02:22:06;;;;;;;;;;;19.60;99.90;;;;;;4593115;19;20329;-39
2022/06/29 02:23:36;;;;;;;;;;;19.60;99.90;;;;;;4592975;19;20234;-38
2022/06/29 02:25:09;;;;;;;;;;;19.60;99.90;;;;;;4593360;19;19941;-40
2022/06/29 02:26:40;;;;;;;;;;;19.60;99.90;;;;;;4593091;19;19922;-37
2022/06/29 02:28:11;;;;;;;;;;;19.60;99.90;;;;;;4592735;19;19911;-34
2022/06/29 02:29:42;;;;;;;;;;;19.60;99.90;;;;;;4592621;19;19993;-35
2022/06/29 02:34:52;;;;;;;;;;;19.60;99.90;;;;;;4593111;19;20125;-36
2022/06/29 02:36:23;;;;;;;;;;;19.60;99.90;;;;;;4592557;19;20348;-35
2022/06/29 02:37:55;;;;;;;;;;;19.50;99.90;;;;;;4591858;19;19923;-42
2022/06/29 02:39:26;;;;;;;;;;;19.50;99.90;;;;;;4592414;19;20323;-37
2022/06/29 02:40:57;;;;;;;;;;;19.50;99.90;;;;;;4593410;19;19915;-41
2022/06/29 02:42:30;;;;;;;;;;;19.50;99.90;;;;;;4592297;19;19951;-41
2022/06/29 02:44:01;;;;;;;;;;;19.60;99.90;;;;;;4592542;19;19942;-42
2022/06/29 02:45:33;;;;;;;;;;;19.60;99.90;;;;;;4593186;19;19911;-34
2022/06/29 02:47:04;;;;;;;;;;;19.60;99.90;;;;;;4593283;19;19911;-37
2022/06/29 02:48:35;;;;;;;;;;;19.60;99.90;;;;;;4591246;19;19928;-35
2022/06/29 02:50:06;;;;;;;;;;;19.60;99.90;;;;;;4591845;19;20329;-37
2022/06/29 02:51:37;;;;;;;;;;;19.60;99.90;;;;;;4592926;19;19915;-38
2022/06/29 02:53:08;;;;;;;;;;;19.50;99.90;;;;;;4591959;19;19942;-37
2022/06/29 02:54:39;;;;;;;;;;;19.30;99.90;;;;;;4592160;19;19914;-35
2022/06/29 02:56:10;;;;;;;;;;;19.20;99.90;;;;;;4592692;19;19923;-37
2022/06/29 02:57:41;;;;;;;;;;;19.20;99.90;;;;;;4592726;19;20316;-40
2022/06/29 02:59:12;;;;;;;;;;;19.20;99.90;;;;;;4591753;19;19911;-36
2022/06/29 03:00:43;;;;;;;;;;;19.10;99.90;;;;;;4592297;19;19921;-37
2022/06/29 03:02:14;;;;;;;;;;;19.20;99.90;;;;;;4592484;19;19915;-39
2022/06/29 03:03:45;;;;;;;;;;;19.20;99.90;;;;;;4591653;19;19922;-37
2022/06/29 03:05:16;;;;;;;;;;;19.20;99.90;;;;;;4590698;19;19979;-38
2022/06/29 03:06:47;;;;;;;;;;;19.20;99.90;;;;;;4591908;19;20325;-37
2022/06/29 03:08:18;;;;;;;;;;;19.20;99.90;;;;;;4592080;19;19915;-36
2022/06/29 03:09:49;;;;;;;;;;;19.20;99.90;;;;;;4591800;19;19931;-39
2022/06/29 03:11:20;;;;;;;;;;;19.20;99.90;;;;;;4592071;19;19915;-37
2022/06/29 03:12:51;;;;;;;;;;;19.10;99.90;;;;;;4592367;19;20313;-41
2022/06/29 03:14:22;;;;;;;;;;;19.20;99.90;;;;;;4591424;19;19948;-33
2022/06/29 03:15:53;;;;;;;;;;;19.10;99.90;;;;;;4591285;19;19922;-42
2022/06/29 03:17:24;;;;;;;;;;;19.20;99.90;;;;;;4592099;19;19978;-37
2022/06/29 03:18:55;;;;;;;;;;;19.10;99.90;;;;;;4590959;19;19919;-43
2022/06/29 03:20:26;;;;;;;;;;;19.20;99.90;;;;;;4591396;19;19959;-38
2022/06/29 03:21:57;;;;;;;;;;;19.10;99.90;;;;;;4591652;19;19919;-36
2022/06/29 03:23:28;;;;;;;;;;;19.20;99.90;;;;;;4591904;19;19943;-34
2022/06/29 03:24:59;;;;;;;;;;;19.20;99.90;;;;;;4592251;19;19919;-39
2022/06/29 03:26:30;;;;;;;;;;;19.20;99.90;;;;;;4591561;19;19928;-38
2022/06/29 03:28:01;;;;;;;;;;;19.10;99.90;;;;;;4590320;19;19918;-34
2022/06/29 03:29:32;;;;;;;;;;;19.10;99.90;;;;;;4591133;19;20002;-42
2022/06/29 03:31:03;;;;;;;;;;;19.10;99.90;;;;;;4592102;19;20264;-36
2022/06/29 03:32:34;;;;;;;;;;;19.10;99.90;;;;;;4591601;19;20317;-40
2022/06/29 03:34:05;;;;;;;;;;;19.10;99.90;;;;;;4591453;19;19911;-35
2022/06/29 03:35:36;;;;;;;;;;;19.10;99.90;;;;;;4591429;19;19919;-38
2022/06/29 03:37:07;;;;;;;;;;;19.10;99.90;;;;;;4592011;19;19937;-35
2022/06/29 03:38:38;;;;;;;;;;;19.10;99.90;;;;;;4589474;19;19919;-40
2022/06/29 03:40:09;;;;;;;;;;;19.10;99.90;;;;;;4590229;19;19978;-39
2022/06/29 03:41:40;;;;;;;;;;;19.10;99.90;;;;;;4591460;19;19915;-35
2022/06/29 03:43:11;;;;;;;;;;;19.10;99.90;;;;;;4591593;19;20359;-45
2022/06/29 03:44:42;;;;;;;;;;;19.10;99.90;;;;;;4591445;19;20123;-38
2022/06/29 03:46:13;;;;;;;;;;;19.10;99.90;;;;;;4590519;19;19951;-34
2022/06/29 03:47:44;;;;;;;;;;;19.00;99.90;;;;;;4591426;19;19919;-37
2022/06/29 03:49:15;;;;;;;;;;;19.10;99.90;;;;;;4591155;19;20295;-40
2022/06/29 03:50:46;;;;;;;;;;;19.10;99.90;;;;;;4591335;19;19959;-35
2022/06/29 03:52:17;;;;;;;;;;;19.10;99.90;;;;;;4591191;19;20306;-34
2022/06/29 03:53:48;;;;;;;;;;;19.00;99.90;;;;;;4591166;19;19922;-32
2022/06/29 03:55:19;;;;;;;;;;;19.20;99.90;;;;;;4590946;19;19988;-35
2022/06/29 03:56:50;;;;;;;;;;;19.50;99.90;;;;;;4591113;19;20011;-36
2022/06/29 03:58:21;;;;;;;;;;;19.60;99.90;;;;;;4591917;19;19919;-33
2022/06/29 03:59:52;;;;;;;;;;;19.80;99.90;;;;;;4588433;19;19983;-40
2022/06/29 04:01:23;;;;;;;;;;;19.90;99.90;;;;;;4591657;19;19943;-39
2022/06/29 04:02:54;;;;;;;;;;;20.00;99.90;;;;;;4590769;19;19915;-36
2022/06/29 04:04:25;;;;;;;;;;;20.10;99.90;;;;;;4592077;19;19923;-39
2022/06/29 04:05:56;;;;;;;;;;;20.20;99.90;;;;;;4590771;19;20340;-39
2022/06/29 04:07:27;;;;;;;;;;;20.30;99.90;;;;;;4591046;19;19942;-33
2022/06/29 04:08:58;;;;;;;;;;;20.30;99.90;;;;;;4590459;19;19907;-35
2022/06/29 04:10:29;;;;;;;;;;;20.30;99.90;;;;;;4591032;19;20276;-33
2022/06/29 04:12:00;;;;;;;;;;;20.40;99.90;;;;;;4590478;19;19915;-39
2022/06/29 04:13:31;;;;;;;;;;;20.40;99.90;;;;;;4591340;19;19937;-38
2022/06/29 04:15:05;;;;;;;;;;;20.40;99.90;;;;;;4589400;19;20240;-39
2022/06/29 04:16:37;;;;;;;;;;;20.50;99.90;;;;;;4589471;19;19929;-42
2022/06/29 04:18:08;;;;;;;;;;;20.50;99.90;;;;;;4590226;19;19917;-42
2022/06/29 04:19:39;;;;;;;;;;;20.50;99.90;;;;;;4589282;19;19982;-34
2022/06/29 04:21:10;;;;;;;;;;;20.50;99.90;;;;;;4590637;19;19918;-41
2022/06/29 04:22:42;;;;;;;;;;;20.50;99.90;;;;;;4590161;19;19915;-36
2022/06/29 04:24:12;;;;;;;;;;;20.50;99.90;;;;;;4590481;19;19918;-36
2022/06/29 04:25:43;;;;;;;;;;;20.60;99.90;;;;;;4589301;19;19918;-38
2022/06/29 04:27:14;;;;;;;;;;;20.80;99.90;;;;;;4590681;19;20267;-35
2022/06/29 04:28:45;;;;;;;;;;;21.00;99.90;;;;;;4590673;19;20312;-36
2022/06/29 04:30:16;;;;;;;;;;;21.10;99.90;;;;;;4590114;19;19919;-41
2022/06/29 04:31:47;;;;;;;;;;;21.20;99.90;;;;;;4590562;19;19917;-36
2022/06/29 04:33:18;;;;;;;;;;;21.40;99.90;;;;;;4589853;19;19911;-37
2022/06/29 04:34:50;;;;;;;;;;;20.80;99.90;;;;;;4590042;19;20240;-34
2022/06/29 04:36:21;;;;;;;;;;;20.30;99.90;;;;;;4590704;19;19919;-33
2022/06/29 04:37:51;;;;;;;;;;;20.30;99.90;;;;;;4591173;19;19918;-39
2022/06/29 04:39:23;;;;;;;;;;;20.10;99.90;;;;;;4597196;19;20244;-38
2022/06/29 04:40:54;;;;;;;;;;;20.00;99.90;;;;;;4598113;19;19971;-36
2022/06/29 04:42:25;;;;;;;;;;;20.00;99.90;;;;;;4598520;19;19923;-33
2022/06/29 04:43:56;;;;;;;;;;;20.00;99.90;;;;;;4598138;19;19941;-34
2022/06/29 04:47:16;;;;;;;;;;;19.90;99.90;;;;;;4598021;19;19943;-36
2022/06/29 04:48:48;;;;;;;;;;;19.90;99.90;;;;;;4598205;19;19918;-32
2022/06/29 04:50:19;;;;;;;;;;;19.90;99.90;;;;;;4598475;19;19942;-36
2022/06/29 04:51:50;;;;;;;;;;;20.00;99.90;;;;;;4596345;19;19911;-34
2022/06/29 04:53:21;;;;;;;;;;;20.00;99.90;;;;;;4597160;19;20319;-32
2022/06/29 04:54:52;;;;;;;;;;;20.00;99.90;;;;;;4597811;19;19918;-33
2022/06/29 04:56:23;;;;;;;;;;;20.00;99.90;;;;;;4598271;19;20240;-35
2022/06/29 04:57:54;;;;;;;;;;;20.00;99.90;;;;;;4597162;19;19915;-37
2022/06/29 04:59:25;;;;;;;;;;;20.00;99.90;;;;;;4601046;19;19918;-34
2022/06/29 05:00:56;;;;;;;;;;;20.00;99.90;;;;;;4602356;19;19911;-35
2022/06/29 05:02:27;;;;;;;;;;;20.00;99.90;;;;;;4602037;19;19915;-36
2022/06/29 05:04:01;;;;;;;;;;;20.00;99.90;;;;;;4601772;19;19915;-37
2022/06/29 05:05:32;;;;;;;;;;;20.00;99.90;;;;;;4602350;19;19919;-35
2022/06/29 05:07:03;;;;;;;;;;;20.00;99.90;;;;;;4601887;19;19921;-37
2022/06/29 05:08:34;;;;;;;;;;;20.10;99.90;;;;;;4601530;19;19923;-39
2022/06/29 05:10:05;;;;;;;;;;;20.10;99.90;;;;;;4601303;19;19922;-37
2022/06/29 05:11:37;;;;;;;;;;;20.00;99.90;;;;;;4602192;19;20320;-39
2022/06/29 05:13:11;;;;;;;;;;;20.00;99.90;;;;;;4602237;19;19934;-37
2022/06/29 05:14:41;;;;;;;;;;;20.10;99.90;;;;;;4601551;19;19918;-36
2022/06/29 05:16:13;;;;;;;;;;;20.00;99.90;;;;;;4601688;19;20534;-38
2022/06/29 05:17:45;;;;;;;;;;;20.00;99.90;;;;;;4602319;19;19970;-33
2022/06/29 05:19:16;;;;;;;;;;;20.00;99.90;;;;;;4600256;19;19937;-40
2022/06/29 05:20:47;;;;;;;;;;;20.00;99.90;;;;;;4602047;19;20256;-37
2022/06/29 05:22:19;;;;;;;;;;;20.00;99.90;;;;;;4601890;19;19919;-35
2022/06/29 05:23:50;;;;;;;;;;;20.30;99.90;;;;;;4599732;19;19930;-35
2022/06/29 05:25:21;;;;;;;;;;;20.50;99.90;;;;;;4602137;19;20325;-39
2022/06/29 05:26:52;;;;;;;;;;;20.90;99.90;;;;;;4601899;19;19930;-38
2022/06/29 05:28:23;;;;;;;;;;;21.10;99.90;;;;;;4601497;19;19923;-32
2022/06/29 05:29:54;;;;;;;;;;;21.40;99.90;;;;;;4601580;19;19930;-33
2022/06/29 05:31:29;;;;;;;;;;;21.60;99.90;;;;;;4600588;19;20253;-34
2022/06/29 05:33:00;;;;;;;;;;;21.70;99.90;;;;;;4598516;19;20256;-41
2022/06/29 05:34:31;;;;;;;;;;;21.80;99.90;;;;;;4599649;19;19919;-37
2022/06/29 05:36:03;;;;;;;;;;;21.90;99.90;;;;;;4600266;19;19936;-36
2022/06/29 05:37:34;;;;;;;;;;;21.90;99.90;;;;;;4598939;19;20245;-42
2022/06/29 05:39:05;;;;;;;;;;;22.00;99.90;;;;;;4597602;19;19922;-42
2022/06/29 05:40:36;;;;;;;;;;;22.00;99.90;;;;;;4601607;19;19915;-36
2022/06/29 05:42:08;;;;;;;;;;;22.10;99.90;;;;;;4600723;19;19915;-39
2022/06/29 05:43:39;;;;;;;;;;;22.10;99.90;;;;;;4599632;19;20337;-33
2022/06/29 05:45:10;;;;;;;;;;;22.20;99.90;;;;;;4600277;19;19915;-39
2022/06/29 05:46:41;;;;;;;;;;;22.10;99.90;;;;;;4600284;19;19925;-37
2022/06/29 05:48:12;;;;;;;;;;;19.40;99.90;;;;;;4599813;19;19930;-33
2022/06/29 05:49:43;;;;;;;;;;;18.60;99.90;;;;;;4599146;19;19923;-33
2022/06/29 05:51:14;;;;;;;;;;;18.30;99.90;;;;;;4599460;19;19930;-37
2022/06/29 05:52:45;;;;;;;;;;;18.30;99.90;;;;;;4599744;19;19922;-33
2022/06/29 05:54:16;;;;;;;;;;;18.30;99.90;;;;;;4601343;19;19915;-35
2022/06/29 05:55:47;;;;;;;;;;;18.20;99.90;;;;;;4599232;19;19923;-32
2022/06/29 05:57:19;;;;;;;;;;;18.30;99.90;;;;;;4600566;19;19922;-35
2022/06/29 05:58:50;;;;;;;;;;;18.30;99.90;;;;;;4600831;19;20393;-36
2022/06/29 06:00:21;;;;;;;;;;;18.30;99.90;;;;;;4598409;19;20581;-37
2022/06/29 06:01:52;;;;;;;;;;;18.40;99.90;;;;;;4599326;19;19918;-34
2022/06/29 06:03:23;;;;;;;;;;;18.40;99.90;;;;;;4599533;19;20357;-35
2022/06/29 06:04:54;;;;;;;;;;;18.40;99.90;;;;;;4598684;19;19915;-34
2022/06/29 06:06:25;;;;;;;;;;;18.40;99.90;;;;;;4598731;19;19914;-34
2022/06/29 06:07:56;;;;;;;;;;;18.40;99.90;;;;;;4601439;19;19974;-35
2022/06/29 06:09:28;;;;;;;;;;;18.50;99.90;;;;;;4600692;19;19922;-39
2022/06/29 06:10:58;;;;;;;;;;;18.50;99.90;;;;;;4600403;19;19918;-35
2022/06/29 06:12:30;;;;;;;;;;;18.50;99.90;;;;;;4600332;19;19922;-34
2022/06/29 06:14:01;;;;;;;;;;;18.50;99.90;;;;;;4598770;19;19923;-42
2022/06/29 06:15:33;;;;;;;;;;;18.50;99.90;;;;;;4599273;19;19914;-35
2022/06/29 06:17:04;;;;;;;;;;;18.60;99.90;;;;;;4597887;19;19919;-35
2022/06/29 06:18:35;;;;;;;;;;;18.60;99.90;;;;;;4598215;19;20402;-40
2022/06/29 06:20:07;;;;;;;;;;;18.60;99.90;;;;;;4597899;19;19919;-37
2022/06/29 06:21:38;;;;;;;;;;;18.60;99.90;;;;;;4601253;19;19919;-35
2022/06/29 06:23:09;;;;;;;;;;;18.60;99.90;;;;;;4600894;19;19941;-36
2022/06/29 06:24:40;;;;;;;;;;;18.60;99.90;;;;;;4600533;19;19918;-33
2022/06/29 06:26:11;;;;;;;;;;;18.60;99.90;;;;;;4600322;19;19925;-33
2022/06/29 06:27:42;;;;;;;;;;;18.70;99.90;;;;;;4599821;19;19911;-36
2022/06/29 06:29:13;;;;;;;;;;;18.70;99.90;;;;;;4599311;19;19915;-40
2022/06/29 06:30:44;;;;;;;;;;;18.70;99.90;;;;;;4598901;19;19982;-34
2022/06/29 06:32:15;;;;;;;;;;;18.60;99.90;;;;;;4599268;19;19919;-34
2022/06/29 06:33:46;;;;;;;;;;;18.70;99.90;;;;;;4597961;19;19915;-34
2022/06/29 06:35:19;;;;;;;;;;;18.70;99.90;;;;;;4598249;19;19919;-34
2022/06/29 06:36:51;;;;;;;;;;;18.70;99.90;;;;;;4599537;19;19915;-33
2022/06/29 06:38:22;;;;;;;;;;;18.70;99.90;;;;;;4599342;19;20356;-37
2022/06/29 06:41:43;;;;;;;;;;;18.80;99.90;;;;;;4599548;19;20656;-42
2022/06/29 06:43:14;;;;;;;;;;;18.70;99.90;;;;;;4599803;19;19919;-33
2022/06/29 06:44:45;;;;;;;;;;;18.70;99.90;;;;;;4600058;19;20009;-34
2022/06/29 06:46:16;;;;;;;;;;;18.70;99.90;;;;;;4599119;19;19910;-35
2022/06/29 06:47:47;;;;;;;;;;;18.80;99.90;;;;;;4599075;19;19923;-35
2022/06/29 06:49:33;;;;;;;;;;;18.80;99.90;;;;;;4601201;19;20368;-35
2022/06/29 06:51:04;;;;;;;;;;;18.80;99.90;;;;;;4598722;19;19922;-40
2022/06/29 06:52:35;;;;;;;;;;;18.70;99.90;;;;;;4600388;19;19933;-42
2022/06/29 06:54:06;;;;;;;;;;;18.70;99.90;;;;;;4599686;19;20269;-38
2022/06/29 06:55:37;;;;;;;;;;;18.70;99.90;;;;;;4597618;19;20312;-33
2022/06/29 06:57:09;;;;;;;;;;;18.80;99.90;;;;;;4597955;19;19918;-35
2022/06/29 06:58:40;;;;;;;;;;;18.80;99.90;;;;;;4596881;19;20016;-38
2022/06/29 07:00:11;;;;;;;;;;;18.80;99.90;;;;;;4595411;19;19919;-36
2022/06/29 07:01:42;;;;;;;;;;;18.80;99.90;;;;;;4596129;19;20242;-38
2022/06/29 07:03:13;;;;;;;;;;;18.80;99.90;;;;;;4595915;19;19986;-38
2022/06/29 07:04:46;;;;;;;;;;;18.80;99.90;;;;;;4595899;19;19952;-36
2022/06/29 07:06:17;;;;;;;;;;;18.80;99.90;;;;;;4597450;19;19946;-36
2022/06/29 07:07:48;;;;;;;;;;;18.80;99.90;;;;;;4597637;19;19911;-41
2022/06/29 07:09:19;;;;;;;;;;;18.80;99.90;;;;;;4597142;19;20010;-34
2022/06/29 07:10:50;;;;;;;;;;;18.80;99.90;;;;;;4597394;19;19934;-33
2022/06/29 07:12:21;;;;;;;;;;;18.80;99.90;;;;;;4597794;19;19979;-33
2022/06/29 07:13:52;;;;;;;;;;;18.90;99.90;;;;;;4597651;19;19915;-36
2022/06/29 07:15:24;;;;;;;;;;;18.80;99.90;;;;;;4596969;19;20397;-41
2022/06/29 07:16:55;;;;;;;;;;;18.80;99.90;;;;;;4597007;19;19925;-32
2022/06/29 07:18:26;;;;;;;;;;;18.90;99.90;;;;;;4597883;19;19924;-41
2022/06/29 07:19:57;;;;;;;;;;;18.90;99.90;;;;;;4596016;19;19911;-34
2022/06/29 07:21:29;;;;;;;;;;;18.90;99.90;;;;;;4594873;19;19918;-44
2022/06/29 07:23:00;;;;;;;;;;;18.90;99.90;;;;;;4596871;19;20280;-35
2022/06/29 07:24:30;;;;;;;;;;;19.00;99.90;;;;;;4597096;19;19939;-38
2022/06/29 07:26:01;;;;;;;;;;;18.90;99.90;;;;;;4596808;19;19919;-40
2022/06/29 07:27:33;;;;;;;;;;;19.00;99.90;;;;;;4597469;19;20371;-35
2022/06/29 07:29:04;;;;;;;;;;;19.00;99.90;;;;;;4598594;19;19922;-40
2022/06/29 07:30:35;;;;;;;;;;;19.00;99.90;;;;;;4599279;19;20317;-33
2022/06/29 07:32:06;;;;;;;;;;;19.00;99.90;;;;;;4598732;19;19910;-40
2022/06/29 07:33:38;;;;;;;;;;;19.00;99.90;;;;;;4599051;19;20351;-36
2022/06/29 07:35:08;;;;;;;;;;;19.00;99.90;;;;;;4598824;19;19918;-40
2022/06/29 07:36:39;;;;;;;;;;;19.00;99.90;;;;;;4599509;19;19915;-33
2022/06/29 07:38:10;;;;;;;;;;;19.00;99.90;;;;;;4598123;19;19922;-37
2022/06/29 07:39:46;;;;;;;;;;;19.00;99.90;;;;;;4596288;19;20300;-36
2022/06/29 07:41:20;;;;;;;;;;;19.10;99.90;;;;;;4596613;19;20262;-39
2022/06/29 07:42:51;;;;;;;;;;;19.10;99.90;;;;;;4598686;19;19926;-33
2022/06/29 07:44:22;;;;;;;;;;;19.10;99.90;;;;;;4599087;19;20313;-38
2022/06/29 07:45:55;;;;;;;;;;;19.10;99.90;;;;;;4599388;19;19983;-33
2022/06/29 07:47:25;;;;;;;;;;;19.10;99.90;;;;;;4596839;19;19930;-36
2022/06/29 07:48:56;;;;;;;;;;;19.10;99.90;;;;;;4596924;19;19934;-39
2022/06/29 07:50:27;;;;;;;;;;;19.20;99.90;;;;;;4597949;19;19910;-37
2022/06/29 07:51:59;;;;;;;;;;;19.20;99.90;;;;;;4597808;19;20321;-37
2022/06/29 07:53:29;;;;;;;;;;;19.20;99.90;;;;;;4596541;19;19950;-37
2022/06/29 07:55:01;;;;;;;;;;;19.20;99.90;;;;;;4595565;19;19919;-35
2022/06/29 07:56:33;;;;;;;;;;;19.30;99.90;;;;;;4595537;19;19935;-37
2022/06/29 07:58:05;;;;;;;;;;;19.30;99.90;;;;;;4596519;19;19927;-33
2022/06/29 07:59:36;;;;;;;;;;;19.20;99.90;;;;;;4598964;19;19937;-34
2022/06/29 08:01:06;;;;;;;;;;;19.30;99.90;;;;;;4598411;19;20368;-44
2022/06/29 08:02:38;;;;;;;;;;;19.30;99.90;;;;;;4598026;19;19974;-36
2022/06/29 08:04:09;;;;;;;;;;;19.30;99.90;;;;;;4598617;19;19926;-40
2022/06/29 08:05:40;;;;;;;;;;;19.30;99.90;;;;;;4597469;19;19919;-33
2022/06/29 08:07:11;;;;;;;;;;;19.30;99.90;;;;;;4597337;19;19935;-36
2022/06/29 08:08:42;;;;;;;;;;;19.30;99.90;;;;;;4597102;19;19970;-38
2022/06/29 08:10:14;;;;;;;;;;;19.30;99.90;;;;;;4596670;19;20355;-33
2022/06/29 08:11:45;;;;;;;;;;;19.30;99.90;;;;;;4596487;19;19947;-35
2022/06/29 08:13:16;;;;;;;;;;;19.20;99.90;;;;;;4599315;19;19919;-34
2022/06/29 08:14:47;;;;;;;;;;;19.30;99.90;;;;;;4597259;19;19915;-36
2022/06/29 08:16:18;;;;;;;;;;;19.20;99.90;;;;;;4598559;19;19974;-37
2022/06/29 08:17:49;;;;;;;;;;;19.20;99.90;;;;;;4597464;19;19942;-34
2022/06/29 08:19:20;;;;;;;;;;;19.30;99.90;;;;;;4597931;19;20332;-41
2022/06/29 08:20:51;;;;;;;;;;;19.30;99.90;;;;;;4598936;19;19925;-42
2022/06/29 08:22:22;;;;;;;;;;;19.30;99.90;;;;;;4597821;19;20332;-38
2022/06/29 08:23:53;;;;;;;;;;;19.30;99.90;;;;;;4598048;19;19925;-33
2022/06/29 08:25:24;;;;;;;;;;;19.30;99.90;;;;;;4597942;19;20275;-35
2022/06/29 08:26:55;;;;;;;;;;;19.40;99.90;;;;;;4597400;19;19915;-37
2022/06/29 08:28:29;;;;;;;;;;;19.40;99.90;;;;;;4597492;19;20348;-41
2022/06/29 08:30:00;;;;;;;;;;;19.50;99.90;;;;;;4598018;19;19915;-37
2022/06/29 08:31:31;;;;;;;;;;;19.50;99.90;;;;;;4598077;19;19941;-35
2022/06/29 08:33:02;;;;;;;;;;;19.50;99.90;;;;;;4601849;19;19923;-35
2022/06/29 08:34:37;;;;;;;;;;;19.50;99.90;;;;;;4602249;19;20014;-35
2022/06/29 08:36:08;;;;;;;;;;;19.50;99.90;;;;;;4601748;19;19938;-34
2022/06/29 08:37:39;;;;;;;;;;;19.50;99.90;;;;;;4602076;19;19923;-35
2022/06/29 08:39:10;;;;;;;;;;;19.60;99.90;;;;;;4600193;19;19931;-35
2022/06/29 08:40:42;;;;;;;;;;;19.60;99.90;;;;;;4601928;19;19970;-35
2022/06/29 08:42:13;;;;;;;;;;;19.60;99.90;;;;;;4601426;19;19918;-38
2022/06/29 08:43:44;;;;;;;;;;;19.60;99.90;;;;;;4602171;19;20352;-42
2022/06/29 08:45:15;;;;;;;;;;;19.60;99.90;;;;;;4600681;19;19914;-40
2022/06/29 08:46:46;;;;;;;;;;;19.60;99.90;;;;;;4601278;19;19918;-35
2022/06/29 08:48:17;;;;;;;;;;;19.60;99.90;;;;;;4601505;19;19922;-35
2022/06/29 08:49:48;;;;;;;;;;;19.60;99.90;;;;;;4601717;19;20321;-36
2022/06/29 08:51:20;;;;;;;;;;;19.60;99.90;;;;;;4601670;19;19922;-38
2022/06/29 08:52:51;;;;;;;;;;;19.60;99.90;;;;;;4600560;19;19919;-41
2022/06/29 08:54:23;;;;;;;;;;;19.60;99.90;;;;;;4600935;19;19938;-36
2022/06/29 08:55:55;;;;;;;;;;;19.60;99.90;;;;;;4601792;19;19919;-40
2022/06/29 08:57:26;;;;;;;;;;;19.60;99.90;;;;;;4600282;19;20255;-34